sensor_id;sensor_type;location;lat;lon;timestamp;pressure;altitude;pressure_sealevel;temperature;humidity
46782;BME280;32541;46.298;11.506;2023-04-28T00:01:22;89755.66;;;6.71;78.07
46782;BME280;32541;46.298;11.506;2023-04-28T00:03:48;89754.75;;;6.77;77.46
46782;BME280;32541;46.298;11.506;2023-04-28T00:06:13;89750.97;;;6.64;79.56
46782;BME280;32541;46.298;11.506;2023-04-28T00:08:39;89747.50;;;6.56;79.97
46782;BME280;32541;46.298;11.506;2023-04-28T00:11:09;89747.69;;;6.51;80.21
46782;BME280;32541;46.298;11.506;2023-04-28T00:13:35;89738.59;;;6.56;79.75
46782;BME280;32541;46.298;11.506;2023-04-28T00:16:00;89738.56;;;6.71;78.67
46782;BME280;32541;46.298;11.506;2023-04-28T00:18:26;89737.84;;;6.63;79.04
46782;BME280;32541;46.298;11.506;2023-04-28T00:20:51;89732.94;;;6.61;78.95
46782;BME280;32541;46.298;11.506;2023-04-28T00:23:17;89733.28;;;6.65;78.58
46782;BME280;32541;46.298;11.506;2023-04-28T00:25:42;89732.75;;;6.59;78.64
46782;BME280;32541;46.298;11.506;2023-04-28T00:28:07;89734.97;;;6.46;79.06
46782;BME280;32541;46.298;11.506;2023-04-28T00:30:33;89729.53;;;6.38;79.53
46782;BME280;32541;46.298;11.506;2023-04-28T00:32:58;89739.13;;;6.54;78.85
46782;BME280;32541;46.298;11.506;2023-04-28T00:35:23;89736.06;;;6.43;79.24
46782;BME280;32541;46.298;11.506;2023-04-28T00:37:49;89730.66;;;6.20;80.84
46782;BME280;32541;46.298;11.506;2023-04-28T00:40:14;89737.94;;;6.18;80.60
46782;BME280;32541;46.298;11.506;2023-04-28T00:42:40;89734.09;;;6.21;80.00
46782;BME280;32541;46.298;11.506;2023-04-28T00:45:05;89736.09;;;6.20;79.95
46782;BME280;32541;46.298;11.506;2023-04-28T00:47:32;89744.47;;;6.07;80.54
46782;BME280;32541;46.298;11.506;2023-04-28T00:49:59;89733.38;;;6.12;80.08
46782;BME280;32541;46.298;11.506;2023-04-28T00:52:26;89739.03;;;6.07;79.86
46782;BME280;32541;46.298;11.506;2023-04-28T00:54:51;89737.00;;;6.15;79.45
46782;BME280;32541;46.298;11.506;2023-04-28T00:57:18;89728.28;;;6.09;80.12
46782;BME280;32541;46.298;11.506;2023-04-28T00:59:43;89733.00;;;6.16;79.62
46782;BME280;32541;46.298;11.506;2023-04-28T01:02:09;89737.19;;;6.25;79.04
46782;BME280;32541;46.298;11.506;2023-04-28T01:04:41;89737.00;;;6.23;78.97
46782;BME280;32541;46.298;11.506;2023-04-28T01:07:07;89735.38;;;6.20;79.15
46782;BME280;32541;46.298;11.506;2023-04-28T01:09:33;89736.13;;;6.05;79.69
46782;BME280;32541;46.298;11.506;2023-04-28T01:11:58;89737.94;;;6.02;79.94
46782;BME280;32541;46.298;11.506;2023-04-28T01:14:24;89728.31;;;5.94;80.49
46782;BME280;32541;46.298;11.506;2023-04-28T01:16:49;89735.75;;;5.86;80.84
46782;BME280;32541;46.298;11.506;2023-04-28T01:19:19;89732.81;;;5.84;80.49
46782;BME280;32541;46.298;11.506;2023-04-28T01:21:49;89727.16;;;5.74;81.15
46782;BME280;32541;46.298;11.506;2023-04-28T01:24:15;89734.28;;;5.85;80.76
46782;BME280;32541;46.298;11.506;2023-04-28T01:26:41;89735.91;;;5.80;80.43
46782;BME280;32541;46.298;11.506;2023-04-28T01:29:06;89742.63;;;5.72;81.02
46782;BME280;32541;46.298;11.506;2023-04-28T01:31:31;89739.72;;;5.77;81.05
46782;BME280;32541;46.298;11.506;2023-04-28T01:33:57;89734.44;;;5.72;81.48
46782;BME280;32541;46.298;11.506;2023-04-28T01:36:23;89737.53;;;5.68;81.63
46782;BME280;32541;46.298;11.506;2023-04-28T01:38:49;89749.00;;;5.67;81.58
46782;BME280;32541;46.298;11.506;2023-04-28T01:41:15;89752.59;;;5.61;81.96
46782;BME280;32541;46.298;11.506;2023-04-28T01:43:41;89748.44;;;5.60;81.65
46782;BME280;32541;46.298;11.506;2023-04-28T01:46:08;89750.09;;;5.71;81.22
46782;BME280;32541;46.298;11.506;2023-04-28T01:48:33;89749.72;;;5.67;81.58
46782;BME280;32541;46.298;11.506;2023-04-28T01:50:59;89742.59;;;5.56;82.47
46782;BME280;32541;46.298;11.506;2023-04-28T01:53:24;89747.84;;;5.39;83.36
46782;BME280;32541;46.298;11.506;2023-04-28T01:55:50;89746.00;;;5.27;84.13
46782;BME280;32541;46.298;11.506;2023-04-28T01:58:15;89750.41;;;5.37;83.82
46782;BME280;32541;46.298;11.506;2023-04-28T02:00:41;89758.97;;;5.49;82.62
46782;BME280;32541;46.298;11.506;2023-04-28T02:03:06;89756.94;;;5.49;82.37
46782;BME280;32541;46.298;11.506;2023-04-28T02:05:31;89760.03;;;5.38;83.14
46782;BME280;32541;46.298;11.506;2023-04-28T02:07:57;89766.91;;;5.32;83.40
46782;BME280;32541;46.298;11.506;2023-04-28T02:10:22;89765.81;;;5.27;83.97
46782;BME280;32541;46.298;11.506;2023-04-28T02:12:47;89768.00;;;5.21;83.96
46782;BME280;32541;46.298;11.506;2023-04-28T02:15:13;89767.28;;;5.28;83.92
46782;BME280;32541;46.298;11.506;2023-04-28T02:17:38;89770.56;;;5.34;83.97
46782;BME280;32541;46.298;11.506;2023-04-28T02:20:04;89774.38;;;5.31;83.38
46782;BME280;32541;46.298;11.506;2023-04-28T02:22:30;89781.78;;;5.23;84.22
46782;BME280;32541;46.298;11.506;2023-04-28T02:24:56;89777.06;;;5.24;84.29
46782;BME280;32541;46.298;11.506;2023-04-28T02:27:21;89775.97;;;5.19;84.75
46782;BME280;32541;46.298;11.506;2023-04-28T02:29:47;89772.31;;;5.09;85.45
46782;BME280;32541;46.298;11.506;2023-04-28T02:32:12;89758.50;;;5.15;84.96
46782;BME280;32541;46.298;11.506;2023-04-28T02:34:37;89757.97;;;5.16;84.61
46782;BME280;32541;46.298;11.506;2023-04-28T02:37:03;89754.19;;;5.19;84.20
46782;BME280;32541;46.298;11.506;2023-04-28T02:39:28;89755.25;;;5.16;84.51
46782;BME280;32541;46.298;11.506;2023-04-28T02:41:55;89758.16;;;5.18;84.02
46782;BME280;32541;46.298;11.506;2023-04-28T02:44:20;89754.34;;;5.14;84.09
46782;BME280;32541;46.298;11.506;2023-04-28T02:46:46;89756.69;;;5.10;84.04
46782;BME280;32541;46.298;11.506;2023-04-28T02:49:11;89748.72;;;5.19;84.04
46782;BME280;32541;46.298;11.506;2023-04-28T02:51:37;89741.38;;;4.99;85.15
46782;BME280;32541;46.298;11.506;2023-04-28T02:54:03;89733.97;;;5.07;85.03
46782;BME280;32541;46.298;11.506;2023-04-28T02:56:28;89732.16;;;5.10;84.65
46782;BME280;32541;46.298;11.506;2023-04-28T02:58:54;89724.31;;;5.06;84.69
46782;BME280;32541;46.298;11.506;2023-04-28T03:01:20;89719.97;;;5.03;84.79
46782;BME280;32541;46.298;11.506;2023-04-28T03:03:45;89725.75;;;4.99;84.78
46782;BME280;32541;46.298;11.506;2023-04-28T03:06:10;89739.56;;;4.94;85.15
46782;BME280;32541;46.298;11.506;2023-04-28T03:08:36;89737.53;;;4.87;85.93
46782;BME280;32541;46.298;11.506;2023-04-28T03:11:01;89736.81;;;4.94;86.28
46782;BME280;32541;46.298;11.506;2023-04-28T03:13:27;89739.81;;;4.68;87.44
46782;BME280;32541;46.298;11.506;2023-04-28T03:15:54;89739.13;;;4.75;87.12
46782;BME280;32541;46.298;11.506;2023-04-28T03:18:19;89744.06;;;4.84;86.64
46782;BME280;32541;46.298;11.506;2023-04-28T03:20:46;89738.16;;;4.65;87.40
46782;BME280;32541;46.298;11.506;2023-04-28T03:23:12;89731.06;;;4.62;88.07
46782;BME280;32541;46.298;11.506;2023-04-28T03:25:37;89729.81;;;4.63;87.55
46782;BME280;32541;46.298;11.506;2023-04-28T03:28:03;89721.25;;;4.59;88.43
46782;BME280;32541;46.298;11.506;2023-04-28T03:30:29;89723.44;;;4.60;88.07
46782;BME280;32541;46.298;11.506;2023-04-28T03:32:54;89719.09;;;4.65;87.78
46782;BME280;32541;46.298;11.506;2023-04-28T03:35:20;89714.97;;;4.71;86.88
46782;BME280;32541;46.298;11.506;2023-04-28T03:37:45;89716.03;;;4.68;86.92
46782;BME280;32541;46.298;11.506;2023-04-28T03:40:11;89721.25;;;4.59;87.42
46782;BME280;32541;46.298;11.506;2023-04-28T03:42:36;89711.25;;;4.54;88.07
46782;BME280;32541;46.298;11.506;2023-04-28T03:45:02;89704.72;;;4.57;87.81
46782;BME280;32541;46.298;11.506;2023-04-28T03:47:27;89707.47;;;4.57;88.08
46782;BME280;32541;46.298;11.506;2023-04-28T03:49:53;89700.72;;;4.58;87.86
46782;BME280;32541;46.298;11.506;2023-04-28T03:52:18;89710.91;;;4.57;88.07
46782;BME280;32541;46.298;11.506;2023-04-28T03:54:44;89714.16;;;4.56;88.06
46782;BME280;32541;46.298;11.506;2023-04-28T03:57:10;89722.91;;;4.62;87.72
46782;BME280;32541;46.298;11.506;2023-04-28T03:59:35;89725.81;;;4.64;87.79
46782;BME280;32541;46.298;11.506;2023-04-28T04:02:00;89737.78;;;4.61;87.72
46782;BME280;32541;46.298;11.506;2023-04-28T04:04:26;89742.53;;;4.68;87.81
46782;BME280;32541;46.298;11.506;2023-04-28T04:06:52;89750.63;;;4.53;88.41
46782;BME280;32541;46.298;11.506;2023-04-28T04:09:17;89747.72;;;4.51;88.55
46782;BME280;32541;46.298;11.506;2023-04-28T04:11:42;89748.22;;;4.41;88.17
46782;BME280;32541;46.298;11.506;2023-04-28T04:14:08;89743.50;;;4.42;88.31
46782;BME280;32541;46.298;11.506;2023-04-28T04:16:34;89743.28;;;4.40;88.23
46782;BME280;32541;46.298;11.506;2023-04-28T04:19:00;89744.19;;;4.35;88.47
46782;BME280;32541;46.298;11.506;2023-04-28T04:21:25;89738.66;;;4.56;88.24
46782;BME280;32541;46.298;11.506;2023-04-28T04:23:52;89740.47;;;4.53;87.76
46782;BME280;32541;46.298;11.506;2023-04-28T04:26:17;89734.28;;;4.45;88.33
46782;BME280;32541;46.298;11.506;2023-04-28T04:28:43;89742.97;;;4.43;88.31
46782;BME280;32541;46.298;11.506;2023-04-28T04:31:08;89734.53;;;4.26;90.05
46782;BME280;32541;46.298;11.506;2023-04-28T04:33:33;89731.97;;;4.28;89.73
46782;BME280;32541;46.298;11.506;2023-04-28T04:35:59;89730.22;;;4.38;89.69
46782;BME280;32541;46.298;11.506;2023-04-28T04:38:24;89737.84;;;4.40;89.89
46782;BME280;32541;46.298;11.506;2023-04-28T04:40:50;89731.00;;;4.46;90.10
46782;BME280;32541;46.298;11.506;2023-04-28T04:43:15;89740.31;;;4.59;89.49
46782;BME280;32541;46.298;11.506;2023-04-28T04:45:41;89734.19;;;4.66;89.91
46782;BME280;32541;46.298;11.506;2023-04-28T04:48:06;89745.59;;;4.64;89.85
46782;BME280;32541;46.298;11.506;2023-04-28T04:50:31;89736.59;;;4.77;90.59
46782;BME280;32541;46.298;11.506;2023-04-28T04:52:57;89736.41;;;4.75;90.52
46782;BME280;32541;46.298;11.506;2023-04-28T04:55:22;89740.13;;;4.57;90.83
46782;BME280;32541;46.298;11.506;2023-04-28T04:57:48;89749.53;;;4.48;91.72
46782;BME280;32541;46.298;11.506;2023-04-28T05:00:13;89747.72;;;4.51;91.83
46782;BME280;32541;46.298;11.506;2023-04-28T05:02:41;89753.25;;;4.66;91.63
46782;BME280;32541;46.298;11.506;2023-04-28T05:05:06;89763.25;;;4.71;91.20
46782;BME280;32541;46.298;11.506;2023-04-28T05:07:33;89760.53;;;4.78;90.81
46782;BME280;32541;46.298;11.506;2023-04-28T05:09:58;89753.88;;;4.87;91.31
46782;BME280;32541;46.298;11.506;2023-04-28T05:12:24;89754.50;;;5.08;90.84
46782;BME280;32541;46.298;11.506;2023-04-28T05:14:49;89750.13;;;5.05;90.56
46782;BME280;32541;46.298;11.506;2023-04-28T05:17:14;89746.91;;;5.22;90.90
46782;BME280;32541;46.298;11.506;2023-04-28T05:19:40;89741.09;;;5.25;91.23
46782;BME280;32541;46.298;11.506;2023-04-28T05:22:05;89738.94;;;5.31;90.77
46782;BME280;32541;46.298;11.506;2023-04-28T05:24:31;89746.75;;;5.35;90.96
46782;BME280;32541;46.298;11.506;2023-04-28T05:26:59;89746.22;;;5.36;91.23
46782;BME280;32541;46.298;11.506;2023-04-28T05:29:25;89752.06;;;5.40;90.89
46782;BME280;32541;46.298;11.506;2023-04-28T05:31:51;89755.84;;;5.30;90.12
46782;BME280;32541;46.298;11.506;2023-04-28T05:34:16;89760.53;;;5.29;89.32
46782;BME280;32541;46.298;11.506;2023-04-28T05:36:42;89755.94;;;5.09;90.93
46782;BME280;32541;46.298;11.506;2023-04-28T05:39:07;89747.22;;;5.03;91.31
46782;BME280;32541;46.298;11.506;2023-04-28T05:41:34;89749.75;;;5.01;90.65
46782;BME280;32541;46.298;11.506;2023-04-28T05:44:00;89737.44;;;5.23;90.27
46782;BME280;32541;46.298;11.506;2023-04-28T05:46:26;89747.31;;;5.33;89.69
46782;BME280;32541;46.298;11.506;2023-04-28T05:48:51;89736.59;;;5.50;88.90
46782;BME280;32541;46.298;11.506;2023-04-28T05:51:16;89730.56;;;5.29;90.60
46782;BME280;32541;46.298;11.506;2023-04-28T05:53:45;89729.69;;;5.34;88.76
46782;BME280;32541;46.298;11.506;2023-04-28T05:56:16;89728.03;;;5.31;88.50
46782;BME280;32541;46.298;11.506;2023-04-28T05:58:41;89722.97;;;5.43;88.67
46782;BME280;32541;46.298;11.506;2023-04-28T06:01:09;89711.16;;;5.48;89.57
46782;BME280;32541;46.298;11.506;2023-04-28T06:03:35;89704.81;;;5.60;89.47
46782;BME280;32541;46.298;11.506;2023-04-28T06:06:01;89695.16;;;5.67;88.65
46782;BME280;32541;46.298;11.506;2023-04-28T06:08:26;89701.53;;;5.85;88.56
46782;BME280;32541;46.298;11.506;2023-04-28T06:10:52;89710.44;;;6.15;87.79
46782;BME280;32541;46.298;11.506;2023-04-28T06:13:17;89713.53;;;5.97;90.02
46782;BME280;32541;46.298;11.506;2023-04-28T06:15:42;89710.63;;;6.18;87.31
46782;BME280;32541;46.298;11.506;2023-04-28T06:18:08;89725.34;;;6.30;87.40
46782;BME280;32541;46.298;11.506;2023-04-28T06:20:34;89726.25;;;6.32;87.50
46782;BME280;32541;46.298;11.506;2023-04-28T06:23:00;89732.78;;;6.37;88.36
46782;BME280;32541;46.298;11.506;2023-04-28T06:25:25;89736.59;;;6.49;87.79
46782;BME280;32541;46.298;11.506;2023-04-28T06:27:51;89741.66;;;6.60;84.73
46782;BME280;32541;46.298;11.506;2023-04-28T06:30:17;89748.66;;;6.38;83.76
46782;BME280;32541;46.298;11.506;2023-04-28T06:32:45;89755.22;;;6.20;83.54
46782;BME280;32541;46.298;11.506;2023-04-28T06:35:11;89753.91;;;5.76;86.40
46782;BME280;32541;46.298;11.506;2023-04-28T06:37:36;89751.75;;;5.82;85.54
46782;BME280;32541;46.298;11.506;2023-04-28T06:40:01;89751.59;;;5.87;85.85
46782;BME280;32541;46.298;11.506;2023-04-28T06:42:27;89764.63;;;5.74;86.43
46782;BME280;32541;46.298;11.506;2023-04-28T06:44:52;89764.09;;;5.83;86.06
46782;BME280;32541;46.298;11.506;2023-04-28T06:47:18;89768.88;;;5.90;86.02
46782;BME280;32541;46.298;11.506;2023-04-28T06:49:43;89765.22;;;6.10;85.88
46782;BME280;32541;46.298;11.506;2023-04-28T06:52:09;89758.47;;;6.19;86.08
46782;BME280;32541;46.298;11.506;2023-04-28T06:54:35;89768.50;;;6.31;85.57
46782;BME280;32541;46.298;11.506;2023-04-28T06:57:02;89759.91;;;6.50;87.21
46782;BME280;32541;46.298;11.506;2023-04-28T06:59:27;89759.88;;;6.65;86.73
46782;BME280;32541;46.298;11.506;2023-04-28T07:01:53;89752.19;;;6.79;86.63
46782;BME280;32541;46.298;11.506;2023-04-28T07:04:18;89751.59;;;6.95;86.49
46782;BME280;32541;46.298;11.506;2023-04-28T07:06:43;89741.88;;;7.09;85.82
46782;BME280;32541;46.298;11.506;2023-04-28T07:09:09;89759.13;;;7.27;82.46
46782;BME280;32541;46.298;11.506;2023-04-28T07:11:34;89760.19;;;7.32;81.10
46782;BME280;32541;46.298;11.506;2023-04-28T07:14:00;89771.13;;;7.39;81.34
46782;BME280;32541;46.298;11.506;2023-04-28T07:16:25;89764.47;;;7.50;81.14
46782;BME280;32541;46.298;11.506;2023-04-28T07:18:51;89758.19;;;7.64;80.89
46782;BME280;32541;46.298;11.506;2023-04-28T07:21:16;89742.13;;;7.68;80.41
46782;BME280;32541;46.298;11.506;2023-04-28T07:23:42;89730.06;;;7.96;78.75
46782;BME280;32541;46.298;11.506;2023-04-28T07:26:07;89731.91;;;7.94;76.23
46782;BME280;32541;46.298;11.506;2023-04-28T07:28:33;89733.88;;;7.44;80.06
46782;BME280;32541;46.298;11.506;2023-04-28T07:30:59;89745.63;;;7.29;80.60
46782;BME280;32541;46.298;11.506;2023-04-28T07:33:24;89747.63;;;7.28;81.08
46782;BME280;32541;46.298;11.506;2023-04-28T07:35:49;89742.00;;;7.19;80.44
46782;BME280;32541;46.298;11.506;2023-04-28T07:38:16;89735.09;;;7.18;80.89
46782;BME280;32541;46.298;11.506;2023-04-28T07:40:42;89732.88;;;7.24;78.21
46782;BME280;32541;46.298;11.506;2023-04-28T07:43:08;89723.00;;;7.36;78.67
46782;BME280;32541;46.298;11.506;2023-04-28T07:45:37;89730.91;;;7.81;77.58
46782;BME280;32541;46.298;11.506;2023-04-28T07:48:03;89736.78;;;8.03;76.43
46782;BME280;32541;46.298;11.506;2023-04-28T07:50:29;89729.47;;;8.30;74.95
46782;BME280;32541;46.298;11.506;2023-04-28T07:52:54;89740.19;;;8.35;73.61
46782;BME280;32541;46.298;11.506;2023-04-28T07:55:19;89730.59;;;8.44;74.58
46782;BME280;32541;46.298;11.506;2023-04-28T07:57:45;89726.94;;;8.49;73.72
46782;BME280;32541;46.298;11.506;2023-04-28T08:00:11;89725.53;;;8.41;74.58
46782;BME280;32541;46.298;11.506;2023-04-28T08:02:36;89723.50;;;8.41;73.55
46782;BME280;32541;46.298;11.506;2023-04-28T08:05:02;89743.81;;;8.38;72.94
46782;BME280;32541;46.298;11.506;2023-04-28T08:07:27;89741.75;;;8.46;73.63
46782;BME280;32541;46.298;11.506;2023-04-28T08:09:53;89741.28;;;8.57;73.88
46782;BME280;32541;46.298;11.506;2023-04-28T08:12:19;89738.78;;;8.69;73.96
46782;BME280;32541;46.298;11.506;2023-04-28T08:14:46;89725.22;;;8.54;73.25
46782;BME280;32541;46.298;11.506;2023-04-28T08:17:12;89723.94;;;8.55;75.14
46782;BME280;32541;46.298;11.506;2023-04-28T08:19:38;89720.00;;;8.65;75.07
46782;BME280;32541;46.298;11.506;2023-04-28T08:22:03;89704.38;;;8.75;74.41
46782;BME280;32541;46.298;11.506;2023-04-28T08:24:31;89696.44;;;8.79;75.65
46782;BME280;32541;46.298;11.506;2023-04-28T08:27:00;89692.81;;;8.77;74.54
46782;BME280;32541;46.298;11.506;2023-04-28T08:29:31;89701.53;;;8.83;73.31
46782;BME280;32541;46.298;11.506;2023-04-28T08:31:57;89693.47;;;9.02;74.96
46782;BME280;32541;46.298;11.506;2023-04-28T08:34:23;89692.47;;;9.51;70.79
46782;BME280;32541;46.298;11.506;2023-04-28T08:36:48;89704.31;;;9.80;70.89
46782;BME280;32541;46.298;11.506;2023-04-28T08:39:13;89701.94;;;9.94;70.20
46782;BME280;32541;46.298;11.506;2023-04-28T08:41:40;89707.97;;;9.92;69.67
46782;BME280;32541;46.298;11.506;2023-04-28T08:44:09;89705.16;;;10.10;71.82
46782;BME280;32541;46.298;11.506;2023-04-28T08:46:34;89700.53;;;10.48;69.30
46782;BME280;32541;46.298;11.506;2023-04-28T08:49:00;89700.59;;;11.15;66.73
46782;BME280;32541;46.298;11.506;2023-04-28T08:51:39;89699.84;;;11.44;67.65
46782;BME280;32541;46.298;11.506;2023-04-28T08:54:08;89694.66;;;10.90;65.72
46782;BME280;32541;46.298;11.506;2023-04-28T08:56:35;89696.78;;;10.63;66.43
46782;BME280;32541;46.298;11.506;2023-04-28T08:59:01;89679.91;;;10.95;68.35
46782;BME280;32541;46.298;11.506;2023-04-28T09:01:28;89676.25;;;10.74;65.61
46782;BME280;32541;46.298;11.506;2023-04-28T09:03:55;89684.22;;;10.79;66.24
46782;BME280;32541;46.298;11.506;2023-04-28T09:06:21;89691.78;;;11.07;66.55
46782;BME280;32541;46.298;11.506;2023-04-28T09:08:47;89682.19;;;11.08;65.99
46782;BME280;32541;46.298;11.506;2023-04-28T09:11:12;89666.53;;;11.21;64.80
46782;BME280;32541;46.298;11.506;2023-04-28T09:13:39;89667.50;;;11.54;64.91
46782;BME280;32541;46.298;11.506;2023-04-28T09:16:05;89672.13;;;11.70;63.46
46782;BME280;32541;46.298;11.506;2023-04-28T09:18:31;89683.28;;;11.63;63.59
46782;BME280;32541;46.298;11.506;2023-04-28T09:21:07;89683.91;;;11.52;65.62
46782;BME280;32541;46.298;11.506;2023-04-28T09:23:35;89680.38;;;11.80;64.63
46782;BME280;32541;46.298;11.506;2023-04-28T09:26:10;89677.78;;;12.13;62.92
46782;BME280;32541;46.298;11.506;2023-04-28T09:28:35;89693.06;;;12.04;61.93
46782;BME280;32541;46.298;11.506;2023-04-28T09:31:01;89693.03;;;11.45;65.04
46782;BME280;32541;46.298;11.506;2023-04-28T09:33:27;89677.06;;;11.53;63.81
46782;BME280;32541;46.298;11.506;2023-04-28T09:35:53;89680.81;;;11.67;63.35
46782;BME280;32541;46.298;11.506;2023-04-28T09:38:20;89678.25;;;11.50;64.60
46782;BME280;32541;46.298;11.506;2023-04-28T09:40:57;89672.13;;;11.70;64.30
46782;BME280;32541;46.298;11.506;2023-04-28T09:43:31;89663.13;;;12.20;66.04
46782;BME280;32541;46.298;11.506;2023-04-28T09:46:06;89649.69;;;12.36;64.05
46782;BME280;32541;46.298;11.506;2023-04-28T09:48:37;89646.09;;;12.23;63.45
46782;BME280;32541;46.298;11.506;2023-04-28T09:51:04;89654.97;;;12.53;61.15
46782;BME280;32541;46.298;11.506;2023-04-28T09:53:30;89663.63;;;12.38;61.75
46782;BME280;32541;46.298;11.506;2023-04-28T09:55:58;89669.94;;;12.71;60.78
46782;BME280;32541;46.298;11.506;2023-04-28T09:58:24;89666.28;;;12.99;62.35
46782;BME280;32541;46.298;11.506;2023-04-28T10:00:58;89648.03;;;13.15;58.74
46782;BME280;32541;46.298;11.506;2023-04-28T10:03:28;89651.22;;;12.91;58.96
46782;BME280;32541;46.298;11.506;2023-04-28T10:05:55;89646.03;;;12.64;59.14
46782;BME280;32541;46.298;11.506;2023-04-28T10:08:23;89652.47;;;12.57;59.20
46782;BME280;32541;46.298;11.506;2023-04-28T10:10:49;89631.84;;;12.58;59.87
46782;BME280;32541;46.298;11.506;2023-04-28T10:13:18;89629.28;;;12.93;58.71
46782;BME280;32541;46.298;11.506;2023-04-28T10:15:45;89658.13;;;12.80;59.48
46782;BME280;32541;46.298;11.506;2023-04-28T10:18:15;89656.00;;;12.48;59.45
46782;BME280;32541;46.298;11.506;2023-04-28T10:20:43;89636.84;;;12.50;60.81
46782;BME280;32541;46.298;11.506;2023-04-28T10:26:12;89628.97;;;12.56;59.61
46782;BME280;32541;46.298;11.506;2023-04-28T10:28:48;89618.69;;;13.10;58.64
46782;BME280;32541;46.298;11.506;2023-04-28T10:31:16;89611.28;;;13.24;59.91
46782;BME280;32541;46.298;11.506;2023-04-28T10:33:42;89590.34;;;13.43;58.21
46782;BME280;32541;46.298;11.506;2023-04-28T10:36:08;89596.59;;;13.10;58.19
46782;BME280;32541;46.298;11.506;2023-04-28T10:38:35;89592.34;;;13.30;57.50
46782;BME280;32541;46.298;11.506;2023-04-28T10:41:01;89592.63;;;13.46;58.01
46782;BME280;32541;46.298;11.506;2023-04-28T10:58:39;89582.59;;;14.32;57.39
46782;BME280;32541;46.298;11.506;2023-04-28T11:08:51;89573.94;;;14.14;56.01
46782;BME280;32541;46.298;11.506;2023-04-28T11:11:18;89574.66;;;14.38;55.05
46782;BME280;32541;46.298;11.506;2023-04-28T11:13:44;89580.13;;;13.45;56.94
46782;BME280;32541;46.298;11.506;2023-04-28T11:16:13;89569.59;;;13.65;56.52
46782;BME280;32541;46.298;11.506;2023-04-28T11:18:53;89574.78;;;13.70;56.80
46782;BME280;32541;46.298;11.506;2023-04-28T11:21:20;89563.03;;;13.25;57.46
46782;BME280;32541;46.298;11.506;2023-04-28T11:23:46;89562.16;;;13.56;57.21
46782;BME280;32541;46.298;11.506;2023-04-28T11:26:12;89563.97;;;13.63;56.03
46782;BME280;32541;46.298;11.506;2023-04-28T11:29:07;89563.53;;;13.33;56.69
46782;BME280;32541;46.298;11.506;2023-04-28T11:31:33;89561.41;;;13.55;57.49
46782;BME280;32541;46.298;11.506;2023-04-28T11:34:10;89575.59;;;13.50;57.51
46782;BME280;32541;46.298;11.506;2023-04-28T11:36:39;89585.66;;;13.45;57.60
46782;BME280;32541;46.298;11.506;2023-04-28T11:39:07;89583.81;;;13.26;56.14
46782;BME280;32541;46.298;11.506;2023-04-28T11:41:40;89597.00;;;12.95;55.73
46782;BME280;32541;46.298;11.506;2023-04-28T11:44:14;89585.06;;;12.81;55.61
46782;BME280;32541;46.298;11.506;2023-04-28T11:49:17;89575.28;;;12.68;56.22
46782;BME280;32541;46.298;11.506;2023-04-28T11:51:43;89574.88;;;12.62;56.28
46782;BME280;32541;46.298;11.506;2023-04-28T11:54:11;89581.53;;;12.69;57.27
46782;BME280;32541;46.298;11.506;2023-04-28T11:56:39;89587.03;;;12.69;56.88
46782;BME280;32541;46.298;11.506;2023-04-28T11:59:10;89585.19;;;12.83;57.29
46782;BME280;32541;46.298;11.506;2023-04-28T12:01:53;89582.31;;;12.81;56.63
46782;BME280;32541;46.298;11.506;2023-04-28T12:04:33;89579.50;;;12.48;57.29
46782;BME280;32541;46.298;11.506;2023-04-28T12:07:08;89571.50;;;12.31;58.55
46782;BME280;32541;46.298;11.506;2023-04-28T12:09:45;89576.81;;;12.39;58.20
46782;BME280;32541;46.298;11.506;2023-04-28T12:12:20;89585.69;;;12.37;59.84
46782;BME280;32541;46.298;11.506;2023-04-28T12:15:01;89580.69;;;12.45;58.74
46782;BME280;32541;46.298;11.506;2023-04-28T12:17:31;89577.97;;;12.57;58.47
46782;BME280;32541;46.298;11.506;2023-04-28T12:19:58;89581.06;;;12.51;58.44
46782;BME280;32541;46.298;11.506;2023-04-28T12:22:25;89591.53;;;12.53;59.15
46782;BME280;32541;46.298;11.506;2023-04-28T12:25:08;89576.63;;;12.67;58.15
46782;BME280;32541;46.298;11.506;2023-04-28T12:27:34;89578.53;;;12.44;58.35
46782;BME280;32541;46.298;11.506;2023-04-28T12:30:03;89589.63;;;12.55;58.62
46782;BME280;32541;46.298;11.506;2023-04-28T12:32:37;89571.63;;;12.54;57.99
46782;BME280;32541;46.298;11.506;2023-04-28T12:35:04;89578.38;;;12.63;58.37
46782;BME280;32541;46.298;11.506;2023-04-28T12:37:30;89591.78;;;12.57;58.47
46782;BME280;32541;46.298;11.506;2023-04-28T12:39:56;89577.97;;;12.57;59.11
46782;BME280;32541;46.298;11.506;2023-04-28T12:42:21;89564.59;;;12.63;59.59
46782;BME280;32541;46.298;11.506;2023-04-28T12:44:47;89562.59;;;12.75;59.50
46782;BME280;32541;46.298;11.506;2023-04-28T12:47:13;89566.94;;;12.78;60.05
46782;BME280;32541;46.298;11.506;2023-04-28T12:49:38;89567.66;;;12.78;59.98
46782;BME280;32541;46.298;11.506;2023-04-28T12:52:04;89567.94;;;12.82;59.30
46782;BME280;32541;46.298;11.506;2023-04-28T12:54:30;89557.00;;;12.85;57.80
46782;BME280;32541;46.298;11.506;2023-04-28T12:56:56;89563.41;;;12.99;58.40
46782;BME280;32541;46.298;11.506;2023-04-28T12:59:22;89561.44;;;13.11;58.76
46782;BME280;32541;46.298;11.506;2023-04-28T13:01:48;89553.06;;;13.20;59.58
46782;BME280;32541;46.298;11.506;2023-04-28T13:04:15;89553.44;;;13.26;57.97
46782;BME280;32541;46.298;11.506;2023-04-28T13:06:41;89556.78;;;12.92;59.83
46782;BME280;32541;46.298;11.506;2023-04-28T13:09:11;89554.16;;;13.15;59.42
46782;BME280;32541;46.298;11.506;2023-04-28T13:11:38;89555.59;;;13.28;58.47
46782;BME280;32541;46.298;11.506;2023-04-28T13:14:03;89544.09;;;13.31;56.74
46782;BME280;32541;46.298;11.506;2023-04-28T13:16:29;89542.78;;;13.32;59.00
46782;BME280;32541;46.298;11.506;2023-04-28T13:18:55;89549.88;;;13.35;58.56
46782;BME280;32541;46.298;11.506;2023-04-28T13:21:24;89543.25;;;13.41;59.67
46782;BME280;32541;46.298;11.506;2023-04-28T13:23:51;89538.13;;;13.47;58.16